Chickasaw, Iowa
Current Conditions -  °F | °C
As of 10:15 AM on Saturday 25 Oct 2014 (Local Time) from KCCY Reporting Station
Clear Clear  
Wind Chill: 57°   Ceiling: Unl
Heat Index: 57°   Visibility: 10mi
Dew Point: 45°   Wind: 8mph
Humidity: 63%   Direction: 310°NW
Pressure: 30.08"   Gusts: NA
Location:  43.0386°N, 92.4951°W
Report Text: KCCY 251515Z AUTO 31007KT 10SM CLR 14/07 A3008 RMK AO2
Loading
Personal Weather Stations






























Interactive Weather Map New forecast layout! Learn more

10-Day Weather Forecast

Advertisements
Track Severe Weather on mobile